createdAt,value
2023-03-15T00:01:46.802Z,75.38
2023-03-15T00:04:57.377Z,75.38
2023-03-15T00:08:11.011Z,75.15
2023-03-15T00:11:18.708Z,74.68
2023-03-15T00:14:25.111Z,74.71
2023-03-15T00:17:34.986Z,74.37
2023-03-15T00:20:46.531Z,74.34
2023-03-15T00:23:56.392Z,73.83
2023-03-15T00:27:05.051Z,73.33
2023-03-15T00:30:18.912Z,73.16
2023-03-15T00:33:24.931Z,72.87
2023-03-15T00:36:36.037Z,72.46
2023-03-15T00:39:41.905Z,72.33
2023-03-15T00:42:50.595Z,72.28
2023-03-15T00:45:56.478Z,71.78
2023-03-15T00:49:03.153Z,72.03
2023-03-15T00:52:12.855Z,71.71
2023-03-15T00:55:23.052Z,72.30
2023-03-15T00:58:29.036Z,72.20
2023-03-15T01:01:35.910Z,72.60
2023-03-15T01:04:43.554Z,71.77
2023-03-15T01:07:54.677Z,71.98
2023-03-15T01:11:06.346Z,71.21
2023-03-15T01:14:13.819Z,70.96
2023-03-15T01:17:19.771Z,70.66
2023-03-15T01:20:26.555Z,70.74
2023-03-15T01:23:35.129Z,70.98
2023-03-15T01:26:41.942Z,71.73
2023-03-15T01:29:49.749Z,71.36
2023-03-15T01:32:56.827Z,71.52
2023-03-15T01:36:06.169Z,71.36
2023-03-15T01:39:16.593Z,71.17
2023-03-15T01:42:26.286Z,70.87
2023-03-15T01:46:05.141Z,70.97
2023-03-15T01:49:23.032Z,71.16
2023-03-15T01:52:37.293Z,70.65
2023-03-15T01:56:04.888Z,70.97
2023-03-15T01:59:24.453Z,69.98
2023-03-15T02:02:32.149Z,70.25
2023-03-15T02:05:49.784Z,70.32
2023-03-15T02:09:22.402Z,71.00
2023-03-15T02:12:37.950Z,70.18
2023-03-15T02:15:46.969Z,70.40
2023-03-15T02:19:00.750Z,70.23
2023-03-15T02:22:29.560Z,70.38
2023-03-15T02:25:53.928Z,70.18
2023-03-15T02:29:09.346Z,70.65
2023-03-15T02:32:16.093Z,69.87
2023-03-15T02:35:41.303Z,70.19
2023-03-15T02:38:48.585Z,70.18
2023-03-15T02:42:08.078Z,69.70
2023-03-15T02:45:18.531Z,69.61
2023-03-15T02:48:25.524Z,69.21
2023-03-15T02:51:36.296Z,69.08
2023-03-15T02:54:43.747Z,68.40
2023-03-15T02:57:51.040Z,67.78
2023-03-15T03:00:59.464Z,68.59
2023-03-15T03:04:07.155Z,68.35
2023-03-15T03:07:13.578Z,68.72
2023-03-15T03:10:42.988Z,69.40
2023-03-15T03:13:49.253Z,69.52
2023-03-15T03:17:05.419Z,69.77
2023-03-15T03:20:16.948Z,69.91
2023-03-15T03:23:28.378Z,69.87
2023-03-15T03:26:36.382Z,69.79
2023-03-15T03:29:43.587Z,70.21
2023-03-15T03:32:54.426Z,70.28
2023-03-15T03:36:07.852Z,70.39
2023-03-15T03:39:14.284Z,70.34
2023-03-15T03:42:23.340Z,70.52
2023-03-15T03:45:29.438Z,70.41
2023-03-15T03:48:44.004Z,70.21
2023-03-15T03:51:49.954Z,70.69
2023-03-15T03:54:57.175Z,70.21
2023-03-15T03:58:03.150Z,70.26
2023-03-15T04:01:17.970Z,69.86
2023-03-15T04:04:42.399Z,69.54
2023-03-15T04:07:57.199Z,70.22
2023-03-15T04:11:10.050Z,70.44
2023-03-15T04:14:19.140Z,70.07
2023-03-15T04:17:28.082Z,70.44
2023-03-15T04:20:39.381Z,70.09
2023-03-15T04:23:46.332Z,70.25
2023-03-15T04:26:58.702Z,70.09
2023-03-15T04:30:27.326Z,70.01
2023-03-15T04:34:00.127Z,69.60
2023-03-15T04:37:15.330Z,69.64
2023-03-15T04:40:43.232Z,69.47
2023-03-15T04:44:21.252Z,69.97
2023-03-15T04:48:01.927Z,69.86
2023-03-15T04:51:19.931Z,69.39
2023-03-15T04:54:45.338Z,69.96
2023-03-15T04:58:16.439Z,69.85
2023-03-15T05:01:42.111Z,69.62
2023-03-15T05:05:20.323Z,69.52
2023-03-15T05:08:40.819Z,69.76
2023-03-15T05:11:55.860Z,69.67
2023-03-15T05:15:24.647Z,70.30
2023-03-15T05:18:30.575Z,69.84
2023-03-15T05:21:52.516Z,70.12
2023-03-15T05:25:21.287Z,69.85
2023-03-15T05:28:49.317Z,69.47
2023-03-15T05:31:55.339Z,68.90
2023-03-15T05:35:37.526Z,69.51
2023-03-15T05:38:53.122Z,68.86
2023-03-15T05:42:10.904Z,69.05
2023-03-15T05:45:40.413Z,69.13
2023-03-15T05:49:04.988Z,69.19
2023-03-15T05:52:26.750Z,68.72
2023-03-15T05:55:59.653Z,68.92
2023-03-15T05:59:21.119Z,67.88
2023-03-15T06:02:55.009Z,68.64
2023-03-15T06:06:19.417Z,68.79
2023-03-15T06:09:33.461Z,68.47
2023-03-15T06:12:50.433Z,68.74
2023-03-15T06:15:57.687Z,68.65
2023-03-15T06:19:08.210Z,68.39
2023-03-15T06:22:16.438Z,68.69
2023-03-15T06:25:30.823Z,68.36
2023-03-15T06:28:38.967Z,67.99
2023-03-15T06:31:45.011Z,67.57
2023-03-15T06:34:55.066Z,67.42
2023-03-15T06:38:01.541Z,67.44
2023-03-15T06:41:08.818Z,66.56
2023-03-15T06:44:16.080Z,66.97
2023-03-15T06:47:23.729Z,66.58
2023-03-15T06:50:46.092Z,66.16
2023-03-15T06:53:54.307Z,65.13
2023-03-15T06:57:01.601Z,64.65
2023-03-15T07:00:11.514Z,64.73
2023-03-15T07:03:17.485Z,64.77
2023-03-15T07:06:28.491Z,63.90
2023-03-15T07:09:34.406Z,64.43
2023-03-15T07:12:41.124Z,64.11
2023-03-15T07:15:47.997Z,64.61
2023-03-15T07:18:56.408Z,63.64
2023-03-15T07:22:04.919Z,64.14
2023-03-15T07:25:13.033Z,64.05
2023-03-15T07:28:19.075Z,63.98
2023-03-15T07:31:26.096Z,63.01
2023-03-15T07:34:32.046Z,62.45
2023-03-15T07:37:44.757Z,63.64
2023-03-15T07:40:50.819Z,63.29
2023-03-15T07:43:58.552Z,62.37
2023-03-15T07:47:04.599Z,62.26
2023-03-15T07:50:16.456Z,61.26
2023-03-15T07:53:32.190Z,61.23
2023-03-15T07:56:39.334Z,61.75
2023-03-15T07:59:46.419Z,62.03
2023-03-15T08:02:56.495Z,62.77
2023-03-15T08:06:02.368Z,62.22
2023-03-15T08:09:13.230Z,61.94
2023-03-15T08:12:30.289Z,61.48
2023-03-15T08:15:44.404Z,60.97
2023-03-15T08:18:50.271Z,60.21
2023-03-15T08:21:57.148Z,59.03
2023-03-15T08:25:05.603Z,59.50
2023-03-15T08:28:12.917Z,58.95
2023-03-15T08:31:18.967Z,58.16
2023-03-15T08:34:26.326Z,59.08
2023-03-15T08:37:32.159Z,57.63
2023-03-15T08:40:41.703Z,58.18
2023-03-15T08:43:47.711Z,58.77
2023-03-15T08:46:54.480Z,58.60
2023-03-15T08:50:00.482Z,57.36
2023-03-15T08:53:07.154Z,56.30
2023-03-15T08:56:16.397Z,56.14
2023-03-15T08:59:31.704Z,53.04
2023-03-15T09:02:40.280Z,51.83
2023-03-15T09:05:49.863Z,51.82
2023-03-15T09:08:56.753Z,50.29
2023-03-15T09:12:16.498Z,49.89
2023-03-15T09:15:22.743Z,49.19
2023-03-15T09:18:29.623Z,49.76
2023-03-15T09:21:35.779Z,51.67
2023-03-15T09:24:42.491Z,52.49
2023-03-15T09:27:52.938Z,52.00
2023-03-15T09:31:00.203Z,51.07
2023-03-15T09:34:06.897Z,51.11
2023-03-15T09:37:13.940Z,51.54
2023-03-15T09:40:27.647Z,51.48
2023-03-15T09:44:25.432Z,50.86
2023-03-15T09:47:49.909Z,50.61
2023-03-15T09:51:12.183Z,51.06
2023-03-15T09:54:24.096Z,51.44
2023-03-15T09:57:49.913Z,51.67
2023-03-15T10:01:07.595Z,50.55
2023-03-15T10:04:30.404Z,50.79
2023-03-15T10:07:36.327Z,50.46
2023-03-15T10:10:56.504Z,50.41
2023-03-15T10:14:25.609Z,49.44
2023-03-15T10:17:53.247Z,48.95
2023-03-15T10:21:14.110Z,49.31
2023-03-15T10:24:27.299Z,48.84
2023-03-15T10:27:44.553Z,48.46
2023-03-15T10:30:54.466Z,48.25
2023-03-15T10:34:09.827Z,48.66
2023-03-15T10:37:16.553Z,47.74
2023-03-15T10:40:45.369Z,47.45
2023-03-15T10:44:04.902Z,47.92
2023-03-15T10:47:23.713Z,48.54
2023-03-15T10:50:42.352Z,49.02
2023-03-15T10:53:58.759Z,49.50
2023-03-15T10:57:16.728Z,50.58
2023-03-15T11:00:32.617Z,50.10
2023-03-15T11:03:44.191Z,49.83
2023-03-15T11:07:03.828Z,49.64
2023-03-15T11:10:25.490Z,50.26
2023-03-15T11:13:34.140Z,48.81
2023-03-15T11:16:41.441Z,49.30
2023-03-15T11:19:59.883Z,48.64
2023-03-15T11:23:22.822Z,48.90
2023-03-15T11:26:33.012Z,48.91
2023-03-15T11:29:45.343Z,48.16
2023-03-15T11:32:51.355Z,48.38
2023-03-15T11:36:03.079Z,48.24
2023-03-15T11:39:18.698Z,46.53
2023-03-15T11:42:36.851Z,47.46
2023-03-15T11:45:54.214Z,46.77
2023-03-15T11:49:45.504Z,45.96
2023-03-15T11:52:54.016Z,45.39
2023-03-15T11:56:26.615Z,45.71
2023-03-15T11:59:36.891Z,45.84
2023-03-15T12:02:54.470Z,46.25
2023-03-15T12:06:34.297Z,46.94
2023-03-15T12:09:52.646Z,48.19
2023-03-15T12:13:20.018Z,48.82
2023-03-15T12:16:31.781Z,49.82
2023-03-15T12:19:40.560Z,49.10
2023-03-15T12:22:57.425Z,46.69
2023-03-15T12:26:26.922Z,46.40
2023-03-15T12:29:38.860Z,46.53
2023-03-15T12:32:55.140Z,47.54
2023-03-15T12:36:18.446Z,50.29
2023-03-15T12:39:43.072Z,50.71
2023-03-15T12:43:09.322Z,51.41
2023-03-15T12:47:04.624Z,51.07
2023-03-15T12:50:41.710Z,49.96
2023-03-15T12:53:57.174Z,48.85
2023-03-15T12:57:07.976Z,47.83
2023-03-15T13:00:23.990Z,49.07
2023-03-15T13:03:34.950Z,49.07
2023-03-15T13:07:07.697Z,47.98
2023-03-15T13:11:04.205Z,48.28
2023-03-15T13:14:35.914Z,48.22
2023-03-15T13:17:53.889Z,48.45
2023-03-15T13:21:21.356Z,49.72
2023-03-15T13:24:45.457Z,49.07
2023-03-15T13:28:01.954Z,48.60
2023-03-15T13:31:29.939Z,48.42
2023-03-15T13:34:38.435Z,47.31
2023-03-15T13:37:47.056Z,47.70
2023-03-15T13:40:54.102Z,47.25
2023-03-15T13:44:05.252Z,46.83
2023-03-15T13:47:23.610Z,47.21
2023-03-15T13:50:29.675Z,47.87
2023-03-15T13:53:49.788Z,48.08
2023-03-15T13:57:06.492Z,47.71
2023-03-15T14:00:19.460Z,47.67
2023-03-15T14:03:26.317Z,48.28
2023-03-15T14:06:33.713Z,48.46
2023-03-15T14:09:42.310Z,47.76
2023-03-15T14:12:50.008Z,46.89
2023-03-15T14:16:04.195Z,47.54
2023-03-15T14:19:22.187Z,47.36
2023-03-15T14:22:36.038Z,46.95
2023-03-15T14:25:46.778Z,46.09
2023-03-15T14:29:04.972Z,46.31
2023-03-15T14:32:27.921Z,45.11
2023-03-15T14:35:43.705Z,43.89
2023-03-15T14:38:56.460Z,44.28
2023-03-15T14:42:04.886Z,44.87
2023-03-15T14:45:13.502Z,45.13
2023-03-15T14:48:32.164Z,44.60
2023-03-15T14:51:46.416Z,45.45
2023-03-15T14:55:06.765Z,45.50
2023-03-15T14:58:20.237Z,44.42
2023-03-15T15:01:30.412Z,44.60
2023-03-15T15:04:39.799Z,45.21
2023-03-15T15:07:45.868Z,44.95
2023-03-15T15:10:58.920Z,45.30
2023-03-15T15:14:07.508Z,45.30
2023-03-15T15:17:14.304Z,45.82
2023-03-15T15:20:20.997Z,45.44
2023-03-15T15:23:32.258Z,46.57
2023-03-15T15:26:39.303Z,46.75
2023-03-15T15:29:49.343Z,47.00
2023-03-15T15:33:07.668Z,46.82
2023-03-15T15:36:24.405Z,47.10
2023-03-15T15:39:31.133Z,47.06
2023-03-15T15:42:37.820Z,46.84
2023-03-15T15:45:49.257Z,46.62
2023-03-15T15:48:56.304Z,46.65
2023-03-15T15:52:04.926Z,46.99
2023-03-15T15:55:15.738Z,47.60
2023-03-15T15:58:23.435Z,47.69
2023-03-15T16:01:33.398Z,47.46
2023-03-15T16:04:42.243Z,47.80
2023-03-15T16:07:49.837Z,47.69
2023-03-15T16:10:59.077Z,47.69
2023-03-15T16:14:06.302Z,48.10
2023-03-15T16:17:24.378Z,48.17
2023-03-15T16:20:31.386Z,48.63
2023-03-15T16:23:38.875Z,48.44
2023-03-15T16:26:52.580Z,48.47
2023-03-15T16:29:59.358Z,48.50
2023-03-15T16:33:19.110Z,48.62
2023-03-15T16:36:28.740Z,49.12
2023-03-15T16:39:41.123Z,49.39
2023-03-15T16:43:06.063Z,49.69
2023-03-15T16:46:26.957Z,49.36
2023-03-15T16:49:59.236Z,49.59
2023-03-15T16:53:27.003Z,49.93
2023-03-15T16:56:43.238Z,50.03
2023-03-15T16:59:49.171Z,49.89
2023-03-15T17:03:00.178Z,50.12
2023-03-15T17:06:09.745Z,50.03
2023-03-15T17:09:22.846Z,50.11
2023-03-15T17:12:37.232Z,50.14
2023-03-15T17:15:44.417Z,50.28
2023-03-15T17:18:56.003Z,50.24
2023-03-15T17:22:05.689Z,50.03
2023-03-15T17:25:18.603Z,50.09
2023-03-15T17:28:31.811Z,50.67
2023-03-15T17:31:40.324Z,50.41
2023-03-15T17:34:52.827Z,50.59
2023-03-15T17:38:08.783Z,50.89
2023-03-15T17:41:37.406Z,51.05
2023-03-15T17:44:43.514Z,51.19
2023-03-15T17:47:50.484Z,51.32
2023-03-15T17:50:59.369Z,51.33
2023-03-15T17:54:20.949Z,51.25
2023-03-15T17:57:27.342Z,51.30
2023-03-15T18:00:42.290Z,51.32
2023-03-15T18:03:49.532Z,51.90
2023-03-15T18:06:56.501Z,51.59
2023-03-15T18:10:05.207Z,52.05
2023-03-15T18:13:19.220Z,52.08
2023-03-15T18:16:25.774Z,51.93
2023-03-15T18:19:33.069Z,52.00
2023-03-15T18:22:42.431Z,52.09
2023-03-15T18:25:52.461Z,52.75
2023-03-15T18:28:58.680Z,52.35
2023-03-15T18:32:05.759Z,53.04
2023-03-15T18:35:26.405Z,53.06
2023-03-15T18:38:33.482Z,53.38
2023-03-15T18:41:42.270Z,53.41
2023-03-15T18:44:49.115Z,53.80
2023-03-15T18:47:55.555Z,53.97
2023-03-15T18:51:02.404Z,53.94
2023-03-15T18:54:08.794Z,54.16
2023-03-15T18:57:20.706Z,54.19
2023-03-15T19:00:36.343Z,54.35
2023-03-15T19:03:44.170Z,54.26
2023-03-15T19:06:51.759Z,54.25
2023-03-15T19:09:59.545Z,54.24
2023-03-15T19:13:09.880Z,54.07
2023-03-15T19:16:17.841Z,54.55
2023-03-15T19:19:24.181Z,54.92
2023-03-15T19:22:32.047Z,54.95
2023-03-15T19:25:40.413Z,55.09
2023-03-15T19:28:50.715Z,55.34
2023-03-15T19:31:57.380Z,55.65
2023-03-15T19:35:06.025Z,56.16
2023-03-15T19:38:13.103Z,56.14
2023-03-15T19:41:20.195Z,55.95
2023-03-15T19:44:30.840Z,56.79
2023-03-15T19:47:38.363Z,56.89
2023-03-15T19:50:45.513Z,56.26
2023-03-15T19:53:56.775Z,56.13
2023-03-15T19:57:03.673Z,56.61
2023-03-15T20:00:16.992Z,56.60
2023-03-15T20:03:25.920Z,56.55
2023-03-15T20:06:33.147Z,56.73
2023-03-15T20:09:40.076Z,56.69
2023-03-15T20:12:47.663Z,56.85
2023-03-15T20:16:03.225Z,57.23
2023-03-15T20:19:11.048Z,57.11
2023-03-15T20:22:18.116Z,57.35
2023-03-15T20:25:26.266Z,57.87
2023-03-15T20:28:32.444Z,57.98
2023-03-15T20:31:48.556Z,58.64
2023-03-15T20:34:57.654Z,59.49
2023-03-15T20:38:06.978Z,60.23
2023-03-15T20:41:20.741Z,60.32
2023-03-15T20:44:38.074Z,60.46
2023-03-15T20:47:46.762Z,60.59
2023-03-15T20:50:54.213Z,60.67
2023-03-15T20:54:01.093Z,60.94
2023-03-15T20:57:08.435Z,61.22
2023-03-15T21:00:22.776Z,61.08
2023-03-15T21:03:44.713Z,61.03
2023-03-15T21:06:50.959Z,61.69
2023-03-15T21:09:57.729Z,62.16
2023-03-15T21:13:10.193Z,62.80
2023-03-15T21:16:18.507Z,63.06
2023-03-15T21:19:29.402Z,63.24
2023-03-15T21:22:37.483Z,63.11
2023-03-15T21:25:57.457Z,63.64
2023-03-15T21:29:04.224Z,63.57
2023-03-15T21:32:11.301Z,63.39
2023-03-15T21:35:28.716Z,63.88
2023-03-15T21:38:37.613Z,64.43
2023-03-15T21:41:46.254Z,64.44
2023-03-15T21:44:55.758Z,64.59
2023-03-15T21:48:04.660Z,64.91
2023-03-15T21:51:14.707Z,65.32
2023-03-15T21:54:22.215Z,65.67
2023-03-15T21:57:34.073Z,66.04
2023-03-15T22:00:41.121Z,66.38
2023-03-15T22:03:47.122Z,66.66
2023-03-15T22:06:57.819Z,67.01
2023-03-15T22:10:05.075Z,67.14
2023-03-15T22:13:11.725Z,67.15
2023-03-15T22:16:17.996Z,67.46
2023-03-15T22:19:24.726Z,67.58
2023-03-15T22:22:33.722Z,67.60
2023-03-15T22:25:45.174Z,67.49
2023-03-15T22:28:51.706Z,67.72
2023-03-15T22:31:58.374Z,67.56
2023-03-15T22:35:08.467Z,67.64
2023-03-15T22:38:17.822Z,67.68
2023-03-15T22:41:24.305Z,67.80
2023-03-15T22:44:31.066Z,68.26
2023-03-15T22:47:41.855Z,68.26
2023-03-15T22:50:48.533Z,68.11
2023-03-15T22:53:57.438Z,68.31
2023-03-15T22:57:17.693Z,68.14
2023-03-15T23:00:43.976Z,68.70
2023-03-15T23:03:51.300Z,68.77
2023-03-15T23:06:57.214Z,69.11
2023-03-15T23:10:09.086Z,68.98
2023-03-15T23:13:15.130Z,69.52
2023-03-15T23:16:23.672Z,70.13
2023-03-15T23:19:38.396Z,70.04
2023-03-15T23:22:46.389Z,70.00
2023-03-15T23:25:55.413Z,70.02
2023-03-15T23:29:01.993Z,69.76
2023-03-15T23:32:09.708Z,70.40
2023-03-15T23:35:16.381Z,70.71
2023-03-15T23:38:22.437Z,70.69
2023-03-15T23:41:31.714Z,70.77
2023-03-15T23:44:37.576Z,70.72
2023-03-15T23:47:46.086Z,70.96
2023-03-15T23:50:56.475Z,71.32
2023-03-15T23:54:04.298Z,71.48
2023-03-15T23:57:16.248Z,71.69
